Criders, Virginia
Current Conditions -  °F | °C
As of 1:55 PM on Sunday 23 Nov 2014 (Local Time) from K8W2 Reporting Station
Clear Clear  
Wind Chill: 55°   Ceiling: Unl
Heat Index: 55°   Visibility: 10mi
Dew Point: 32°   Wind: 0mph
Humidity: 41%   Direction: NA
Pressure: 30.06"   Gusts: NA
Location:  38.75°N, 79°W
Report Text: K8W2 231855Z AUTO 00000KT 10SM CLR 13/00 A3006 RMK AO1 T01281001
Loading
Personal Weather Stations






























Interactive Weather Map New forecast layout! Learn more

10-Day Weather Forecast

Advertisements
Track Severe Weather on mobile